Terminal Aerodrome Forecast
Issued by NWS Cleveland, OH

Home | Current Version | Previous Version | Graphics & Text | Print | Product List | Glossary On
Versions: 1 2 3 4 5 6 7 8 9 10 11 12 13 14 15 16 17 18 19 20 21 22 23 24 25 26 27 28 29 30 31 32 33
000
FTUS41 KCLE 300500 RRA
TAFCLE
TAF
KCLE 300543Z 3006/0112 22003KT P6SM BKN080
     FM300800 28006KT P6SM SCT015 OVC080
      TEMPO 3010/3012 5SM -RA BR OVC015
     FM301200 32006KT 5SM BR OVC007
      TEMPO 3012/3015 2SM -RA BR OVC004
     FM301500 36008KT P6SM OVC007
     FM302100 36008KT P6SM OVC015=

USA.gov is the U.S. government's official web portal to all federal, state and local government web resources and services.